createdAt,value
2023-05-19T00:00:06.286Z,75.38
2023-05-19T00:01:06.274Z,75.69
2023-05-19T00:02:06.314Z,75.49
2023-05-19T00:03:06.341Z,75.49
2023-05-19T00:04:06.273Z,75.49
2023-05-19T00:05:06.245Z,75.59
2023-05-19T00:06:06.279Z,76.10
2023-05-19T00:07:06.243Z,76.00
2023-05-19T00:08:06.220Z,76.14
2023-05-19T00:09:06.238Z,76.96
2023-05-19T00:10:06.213Z,77.06
2023-05-19T00:11:06.251Z,77.64
2023-05-19T00:12:06.213Z,76.92
2023-05-19T00:13:06.198Z,76.20
2023-05-19T00:14:06.222Z,76.00
2023-05-19T00:15:06.182Z,75.73
2023-05-19T00:16:06.275Z,76.82
2023-05-19T00:17:06.237Z,76.04
2023-05-19T00:18:06.199Z,76.51
2023-05-19T00:19:06.249Z,76.51
2023-05-19T00:20:06.139Z,76.10
2023-05-19T00:21:06.149Z,75.45
2023-05-19T00:22:06.160Z,75.45
2023-05-19T00:23:06.156Z,75.45
2023-05-19T00:24:06.144Z,74.94
2023-05-19T00:25:06.110Z,75.79
2023-05-19T00:26:06.143Z,76.82
2023-05-19T00:27:06.143Z,77.64
2023-05-19T00:28:06.095Z,77.64
2023-05-19T00:29:06.094Z,77.68
2023-05-19T00:30:06.099Z,78.85
2023-05-19T00:31:06.087Z,77.78
2023-05-19T00:32:06.236Z,77.37
2023-05-19T00:33:06.120Z,76.27
2023-05-19T00:34:06.064Z,75.49
2023-05-19T00:35:06.082Z,75.56
2023-05-19T00:36:06.087Z,75.45
2023-05-19T00:37:06.047Z,76.07
2023-05-19T00:38:06.036Z,76.14
2023-05-19T00:39:06.030Z,75.01
2023-05-19T00:40:06.051Z,75.21
2023-05-19T00:41:06.061Z,74.80
2023-05-19T00:42:06.029Z,74.77
2023-05-19T00:43:06.074Z,75.28
2023-05-19T00:44:05.994Z,75.18
2023-05-19T00:45:06.031Z,75.45
2023-05-19T00:46:06.146Z,75.38
2023-05-19T00:47:06.111Z,75.42
2023-05-19T00:48:06.046Z,75.38
2023-05-19T00:49:05.976Z,74.97
2023-05-19T00:50:05.997Z,75.18
2023-05-19T00:51:05.976Z,75.48
2023-05-19T00:52:05.955Z,75.52
2023-05-19T00:53:05.994Z,76.07
2023-05-19T00:54:05.958Z,75.24
2023-05-19T00:55:06.025Z,75.45
2023-05-19T00:56:05.959Z,75.35
2023-05-19T00:57:05.921Z,77.44
2023-05-19T00:58:05.953Z,77.40
2023-05-19T00:59:05.919Z,79.01
2023-05-19T01:00:05.933Z,78.74
2023-05-19T01:01:05.948Z,78.85
2023-05-19T01:02:05.898Z,79.46
2023-05-19T01:03:05.956Z,79.56
2023-05-19T01:04:05.970Z,79.36
2023-05-19T01:05:05.907Z,79.42
2023-05-19T01:06:05.888Z,77.78
2023-05-19T01:07:05.870Z,77.37
2023-05-19T01:08:05.893Z,77.47
2023-05-19T01:09:05.878Z,77.26
2023-05-19T01:10:05.877Z,77.47
2023-05-19T01:11:05.845Z,76.96
2023-05-19T01:12:05.860Z,77.61
2023-05-19T01:13:05.862Z,77.47
2023-05-19T01:14:05.847Z,77.06
2023-05-19T01:15:05.820Z,75.79
2023-05-19T01:16:05.836Z,75.96
2023-05-19T01:17:05.815Z,75.49
2023-05-19T01:18:05.915Z,76.04
2023-05-19T01:19:05.876Z,76.00
2023-05-19T01:20:05.782Z,76.17
2023-05-19T01:21:05.836Z,76.27
2023-05-19T01:22:05.772Z,76.00
2023-05-19T01:23:05.780Z,78.32
2023-05-19T01:24:05.771Z,78.42
2023-05-19T01:25:05.776Z,77.20
2023-05-19T01:26:05.757Z,75.52
2023-05-19T01:27:05.746Z,74.80
2023-05-19T01:28:05.743Z,74.39
2023-05-19T01:29:05.727Z,75.73
2023-05-19T01:30:05.751Z,76.89
2023-05-19T01:31:05.713Z,77.23
2023-05-19T01:32:05.827Z,76.68
2023-05-19T01:33:05.742Z,76.27
2023-05-19T01:34:05.721Z,76.07
2023-05-19T01:35:05.714Z,75.76
2023-05-19T01:36:05.690Z,76.48
2023-05-19T01:37:05.673Z,76.58
2023-05-19T01:38:05.701Z,75.86
2023-05-19T01:39:05.650Z,76.07
2023-05-19T01:40:05.681Z,75.76
2023-05-19T01:41:05.683Z,76.20
2023-05-19T01:42:05.655Z,77.95
2023-05-19T01:43:05.653Z,79.46
2023-05-19T01:44:05.641Z,79.36
2023-05-19T01:45:05.634Z,79.77
2023-05-19T01:46:05.691Z,79.56
2023-05-19T01:47:05.651Z,79.36
2023-05-19T01:48:06.375Z,79.33
2023-05-19T01:49:05.616Z,80.05
2023-05-19T01:50:05.610Z,80.70
2023-05-19T01:51:05.618Z,80.05
2023-05-19T01:52:05.635Z,80.60
2023-05-19T01:53:05.613Z,80.80
2023-05-19T01:54:05.618Z,79.84
2023-05-19T01:55:05.595Z,79.63
2023-05-19T01:56:05.599Z,79.88
2023-05-19T01:57:05.616Z,80.63
2023-05-19T01:58:05.565Z,80.49
2023-05-19T01:59:05.631Z,79.43
2023-05-19T02:00:05.583Z,79.61
2023-05-19T02:01:05.634Z,79.16
2023-05-19T02:02:05.585Z,79.30
2023-05-19T02:03:05.591Z,79.43
2023-05-19T02:04:05.551Z,78.88
2023-05-19T02:05:05.518Z,77.78
2023-05-19T02:06:05.527Z,78.64
2023-05-19T02:07:05.536Z,79.47
2023-05-19T02:08:05.552Z,79.57
2023-05-19T02:09:05.530Z,79.57
2023-05-19T02:10:05.503Z,79.16
2023-05-19T02:11:05.502Z,77.85
2023-05-19T02:12:05.479Z,78.57
2023-05-19T02:13:05.480Z,77.55
2023-05-19T02:14:05.504Z,77.85
2023-05-19T02:15:05.474Z,77.51
2023-05-19T02:16:05.517Z,77.61
2023-05-19T02:17:05.465Z,77.00
2023-05-19T02:18:05.464Z,76.45
2023-05-19T02:19:05.528Z,76.24
2023-05-19T02:20:06.462Z,75.79
2023-05-19T02:21:05.435Z,77.78
2023-05-19T02:22:05.421Z,77.68
2023-05-19T02:23:06.418Z,77.47
2023-05-19T02:24:05.419Z,77.65
2023-05-19T02:25:05.437Z,79.46
2023-05-19T02:26:05.407Z,79.49
2023-05-19T02:27:05.399Z,78.67
2023-05-19T02:28:05.401Z,79.08
2023-05-19T02:29:05.416Z,78.13
2023-05-19T02:30:05.395Z,80.02
2023-05-19T02:31:05.401Z,81.67
2023-05-19T02:32:05.487Z,82.93
2023-05-19T02:33:05.452Z,83.35
2023-05-19T02:34:05.363Z,84.38
2023-05-19T02:35:05.370Z,84.11
2023-05-19T02:36:05.349Z,83.86
2023-05-19T02:37:05.363Z,83.97
2023-05-19T02:38:05.338Z,83.45
2023-05-19T02:39:05.328Z,83.51
2023-05-19T02:40:05.357Z,82.18
2023-05-19T02:41:05.341Z,81.76
2023-05-19T02:42:05.293Z,81.76
2023-05-19T02:43:05.299Z,81.05
2023-05-19T02:44:05.289Z,80.98
2023-05-19T02:45:05.334Z,82.67
2023-05-19T02:46:05.322Z,83.22
2023-05-19T02:47:05.282Z,84.05
2023-05-19T02:48:05.313Z,84.97
2023-05-19T02:49:05.278Z,85.17
2023-05-19T02:50:05.292Z,85.44
2023-05-19T02:51:05.278Z,85.03
2023-05-19T02:52:05.289Z,84.62
2023-05-19T02:53:05.283Z,83.97
2023-05-19T02:54:05.260Z,82.93
2023-05-19T02:55:05.268Z,82.42
2023-05-19T02:56:05.268Z,81.87
2023-05-19T02:57:05.256Z,81.05
2023-05-19T02:58:05.251Z,81.76
2023-05-19T02:59:05.233Z,81.25
2023-05-19T03:00:05.223Z,81.39
2023-05-19T03:01:05.251Z,80.88
2023-05-19T03:02:05.291Z,81.19
2023-05-19T03:03:05.284Z,81.49
2023-05-19T03:04:05.257Z,80.61
2023-05-19T03:05:05.246Z,81.47
2023-05-19T03:06:05.305Z,81.88
2023-05-19T03:07:05.191Z,82.23
2023-05-19T03:08:05.243Z,82.33
2023-05-19T03:09:05.189Z,82.33
2023-05-19T03:10:05.194Z,83.22
2023-05-19T03:11:05.164Z,82.70
2023-05-19T03:12:05.194Z,81.57
2023-05-19T03:13:05.174Z,81.74
2023-05-19T03:14:05.216Z,81.84
2023-05-19T03:15:05.146Z,81.49
2023-05-19T03:16:05.152Z,81.53
2023-05-19T03:17:05.171Z,80.67
2023-05-19T03:18:05.214Z,80.67
2023-05-19T03:19:05.169Z,80.02
2023-05-19T03:20:05.142Z,79.91
2023-05-19T03:21:05.171Z,79.71
2023-05-19T03:22:05.141Z,79.81
2023-05-19T03:23:05.117Z,79.79
2023-05-19T03:24:05.128Z,81.47
2023-05-19T03:25:05.119Z,82.02
2023-05-19T03:26:05.143Z,82.47
2023-05-19T03:27:05.137Z,83.29
2023-05-19T03:28:05.109Z,83.61
2023-05-19T03:29:05.119Z,84.22
2023-05-19T03:30:06.603Z,84.19
2023-05-19T03:31:06.074Z,83.67
2023-05-19T03:32:05.120Z,83.29
2023-05-19T03:33:05.211Z,84.41
2023-05-19T03:34:05.086Z,84.67
2023-05-19T03:35:05.058Z,84.94
2023-05-19T03:36:05.066Z,85.15
2023-05-19T03:37:05.090Z,84.19
2023-05-19T03:38:05.079Z,84.39
2023-05-19T03:39:05.022Z,84.25
2023-05-19T03:40:05.027Z,83.59
2023-05-19T03:41:05.066Z,82.35
2023-05-19T03:42:05.075Z,82.73
2023-05-19T03:43:05.025Z,82.11
2023-05-19T03:44:05.050Z,81.70
2023-05-19T03:45:05.013Z,81.47
2023-05-19T03:46:05.092Z,83.22
2023-05-19T03:47:05.040Z,82.50
2023-05-19T03:48:05.029Z,82.46
2023-05-19T03:49:05.021Z,81.81
2023-05-19T03:50:05.008Z,83.50
2023-05-19T03:51:04.986Z,84.27
2023-05-19T03:52:05.018Z,84.47
2023-05-19T03:53:05.019Z,84.99
2023-05-19T03:54:04.991Z,85.19
2023-05-19T03:55:04.981Z,85.85
2023-05-19T03:56:04.966Z,86.26
2023-05-19T03:57:04.956Z,86.26
2023-05-19T03:58:05.009Z,86.05
2023-05-19T03:59:04.964Z,85.99
2023-05-19T04:00:04.936Z,87.02
2023-05-19T04:01:05.006Z,87.37
2023-05-19T04:02:04.948Z,87.44
2023-05-19T04:03:05.991Z,87.13
2023-05-19T04:04:04.974Z,87.02
2023-05-19T04:05:04.937Z,87.02
2023-05-19T04:06:04.912Z,87.65
2023-05-19T04:07:04.905Z,88.06
2023-05-19T04:08:04.920Z,87.29
2023-05-19T04:09:04.926Z,87.13
2023-05-19T04:10:04.931Z,87.44
2023-05-19T04:11:04.886Z,87.29
2023-05-19T04:12:04.895Z,87.81
2023-05-19T04:13:04.877Z,87.46
2023-05-19T04:14:04.903Z,86.94
2023-05-19T04:15:04.881Z,85.97
2023-05-19T04:16:04.910Z,85.36
2023-05-19T04:17:05.544Z,85.63
2023-05-19T04:18:04.897Z,84.29
2023-05-19T04:19:05.002Z,83.67
2023-05-19T04:20:04.883Z,83.87
2023-05-19T04:21:04.846Z,83.54
2023-05-19T04:22:04.837Z,84.78
2023-05-19T04:23:04.879Z,84.53
2023-05-19T04:24:04.822Z,84.74
2023-05-19T04:25:04.873Z,84.64
2023-05-19T04:26:04.837Z,84.84
2023-05-19T04:27:04.821Z,84.64
2023-05-19T04:28:04.827Z,83.91
2023-05-19T04:29:04.804Z,84.57
2023-05-19T04:30:04.870Z,85.39
2023-05-19T04:31:04.830Z,85.19
2023-05-19T04:32:04.776Z,85.60
2023-05-19T04:33:05.020Z,85.60
2023-05-19T04:34:04.785Z,85.71
2023-05-19T04:35:04.809Z,85.39
2023-05-19T04:36:04.764Z,85.57
2023-05-19T04:37:04.793Z,85.11
2023-05-19T04:38:04.768Z,83.70
2023-05-19T04:39:04.745Z,81.91
2023-05-19T04:40:04.768Z,80.80
2023-05-19T04:41:04.773Z,78.98
2023-05-19T04:42:04.747Z,76.55
2023-05-19T04:43:04.727Z,74.26
2023-05-19T04:44:04.699Z,75.31
2023-05-19T04:45:04.793Z,72.92
2023-05-19T04:46:04.752Z,72.00
2023-05-19T04:47:04.870Z,71.36
2023-05-19T04:48:04.878Z,70.67
2023-05-19T04:49:04.752Z,72.07
2023-05-19T04:50:04.768Z,71.22
2023-05-19T04:51:04.733Z,69.48
2023-05-19T04:52:04.774Z,69.85
2023-05-19T04:53:04.667Z,70.00
2023-05-19T04:54:05.679Z,68.77
2023-05-19T04:55:04.635Z,68.49
2023-05-19T04:56:04.650Z,68.43
2023-05-19T04:57:04.659Z,66.90
2023-05-19T04:58:04.655Z,66.18
2023-05-19T04:59:04.649Z,68.84
2023-05-19T05:00:04.606Z,68.93
2023-05-19T05:01:05.608Z,69.68
2023-05-19T05:02:04.621Z,70.47
2023-05-19T05:03:04.640Z,69.82
2023-05-19T05:04:04.703Z,68.66
2023-05-19T05:05:04.575Z,68.36
2023-05-19T05:06:04.564Z,67.79
2023-05-19T05:07:04.559Z,66.77
2023-05-19T05:08:04.566Z,67.85
2023-05-19T05:09:04.543Z,69.24
2023-05-19T05:10:04.534Z,69.75
2023-05-19T05:11:04.556Z,71.42
2023-05-19T05:12:04.569Z,71.97
2023-05-19T05:13:04.568Z,72.48
2023-05-19T05:14:04.508Z,72.45
2023-05-19T05:15:04.563Z,72.48
2023-05-19T05:16:04.510Z,72.69
2023-05-19T05:17:04.615Z,72.86
2023-05-19T05:18:04.510Z,72.55
2023-05-19T05:19:04.473Z,72.11
2023-05-19T05:20:04.475Z,72.07
2023-05-19T05:21:04.463Z,70.51
2023-05-19T05:22:04.695Z,69.59
2023-05-19T05:23:04.436Z,69.48
2023-05-19T05:24:04.449Z,68.80
2023-05-19T05:25:04.425Z,69.29
2023-05-19T05:26:04.437Z,69.63
2023-05-19T05:27:04.391Z,68.37
2023-05-19T05:28:04.388Z,66.88
2023-05-19T05:29:04.410Z,64.95
2023-05-19T05:30:04.389Z,64.67
2023-05-19T05:31:04.352Z,66.60
2023-05-19T05:32:04.387Z,68.47
2023-05-19T05:33:04.483Z,68.64
2023-05-19T05:34:04.343Z,68.88
2023-05-19T05:35:04.344Z,68.13
2023-05-19T05:36:04.336Z,66.72
2023-05-19T05:37:04.323Z,64.96
2023-05-19T05:38:04.315Z,64.18
2023-05-19T05:39:04.315Z,63.45
2023-05-19T05:40:04.302Z,66.47
2023-05-19T05:41:04.328Z,68.27
2023-05-19T05:42:04.276Z,67.63
2023-05-19T05:43:04.324Z,65.66
2023-05-19T05:44:04.298Z,65.60
2023-05-19T05:45:04.264Z,64.35
2023-05-19T05:46:04.369Z,63.51
2023-05-19T05:47:04.257Z,62.36
2023-05-19T05:48:04.364Z,61.62
2023-05-19T05:49:04.204Z,61.72
2023-05-19T05:50:04.230Z,59.59
2023-05-19T05:51:04.215Z,59.84
2023-05-19T05:52:06.252Z,61.81
2023-05-19T05:53:05.309Z,64.42
2023-05-19T05:54:04.184Z,61.37
2023-05-19T05:55:04.164Z,61.47
2023-05-19T05:56:04.152Z,63.10
2023-05-19T05:57:04.160Z,64.35
2023-05-19T05:58:04.164Z,63.84
2023-05-19T05:59:04.215Z,63.10
2023-05-19T06:00:04.133Z,63.37
2023-05-19T06:01:04.118Z,62.49
2023-05-19T06:02:04.182Z,63.28
2023-05-19T06:03:04.201Z,62.26
2023-05-19T06:04:04.129Z,62.13
2023-05-19T06:05:04.142Z,62.39
2023-05-19T06:06:04.102Z,63.94
2023-05-19T06:07:04.080Z,65.54
2023-05-19T06:08:04.091Z,64.79
2023-05-19T06:09:04.060Z,61.72
2023-05-19T06:10:04.073Z,63.14
2023-05-19T06:11:04.064Z,63.21
2023-05-19T06:12:04.040Z,61.99
2023-05-19T06:13:04.030Z,61.62
2023-05-19T06:14:04.027Z,61.82
2023-05-19T06:15:04.038Z,62.66
2023-05-19T06:16:04.076Z,61.85
2023-05-19T06:17:05.001Z,61.41
2023-05-19T06:18:04.044Z,59.64
2023-05-19T06:19:04.044Z,60.46
2023-05-19T06:20:04.006Z,63.02
2023-05-19T06:21:04.000Z,63.40
2023-05-19T06:22:03.966Z,60.31
2023-05-19T06:23:04.000Z,64.04
2023-05-19T06:24:03.965Z,63.81
2023-05-19T06:25:04.029Z,63.95
2023-05-19T06:26:03.986Z,63.34
2023-05-19T06:27:03.979Z,62.27
2023-05-19T06:28:03.925Z,60.21
2023-05-19T06:29:03.927Z,59.50
2023-05-19T06:30:04.015Z,57.86
2023-05-19T06:31:03.912Z,57.45
2023-05-19T06:32:03.959Z,58.76
2023-05-19T06:33:04.050Z,57.15
2023-05-19T06:34:03.860Z,58.62
2023-05-19T06:35:03.878Z,60.95
2023-05-19T06:36:03.869Z,61.05
2023-05-19T06:37:03.913Z,59.61
2023-05-19T06:38:03.854Z,58.39
2023-05-19T06:39:03.824Z,57.81
2023-05-19T06:40:03.820Z,59.41
2023-05-19T06:41:03.824Z,59.07
2023-05-19T06:42:03.836Z,59.07
2023-05-19T06:43:03.838Z,60.31
2023-05-19T06:44:03.778Z,61.72
2023-05-19T06:45:03.814Z,61.81
2023-05-19T06:46:03.869Z,62.62
2023-05-19T06:47:03.844Z,64.58
2023-05-19T06:48:03.888Z,64.99
2023-05-19T06:49:03.773Z,61.74
2023-05-19T06:50:03.780Z,63.64
2023-05-19T06:51:03.738Z,63.58
2023-05-19T06:52:04.749Z,59.72
2023-05-19T06:53:03.769Z,59.48
2023-05-19T06:54:03.766Z,61.14
2023-05-19T06:55:03.714Z,59.95
2023-05-19T06:56:03.719Z,63.10
2023-05-19T06:57:03.715Z,62.11
2023-05-19T06:58:03.702Z,62.90
2023-05-19T06:59:03.695Z,64.15
2023-05-19T07:00:04.678Z,62.18
2023-05-19T07:01:03.660Z,62.21
2023-05-19T07:02:03.672Z,61.91
2023-05-19T07:03:03.759Z,61.76
2023-05-19T07:04:03.772Z,63.59
2023-05-19T07:05:03.633Z,62.41
2023-05-19T07:06:04.633Z,64.96
2023-05-19T07:07:03.605Z,62.55
2023-05-19T07:08:03.675Z,63.13
2023-05-19T07:09:03.619Z,64.76
2023-05-19T07:10:03.638Z,63.98
2023-05-19T07:11:03.621Z,60.56
2023-05-19T07:12:03.624Z,60.59
2023-05-19T07:13:03.599Z,61.94
2023-05-19T07:14:03.608Z,61.22
2023-05-19T07:15:03.558Z,62.72
2023-05-19T07:16:03.553Z,62.90
2023-05-19T07:17:03.594Z,61.65
2023-05-19T07:18:03.592Z,60.69
2023-05-19T07:19:03.576Z,64.73
2023-05-19T07:20:03.515Z,62.97
2023-05-19T07:21:03.545Z,60.40
2023-05-19T07:22:03.537Z,60.27
2023-05-19T07:23:03.570Z,62.02
2023-05-19T07:24:03.499Z,61.29
2023-05-19T07:25:03.480Z,59.72
2023-05-19T07:26:03.538Z,60.13
2023-05-19T07:27:03.482Z,59.59
2023-05-19T07:28:03.500Z,63.72
2023-05-19T07:29:03.447Z,59.81
2023-05-19T07:30:03.434Z,61.29
2023-05-19T07:31:03.475Z,58.45
2023-05-19T07:32:03.470Z,60.47
2023-05-19T07:33:03.512Z,60.95
2023-05-19T07:34:03.491Z,60.31
2023-05-19T07:35:03.432Z,57.48
2023-05-19T07:36:03.418Z,57.48
2023-05-19T07:37:03.430Z,59.68
2023-05-19T07:38:03.414Z,56.13
2023-05-19T07:39:03.504Z,58.74
2023-05-19T07:40:03.382Z,56.18
2023-05-19T07:41:03.497Z,58.61
2023-05-19T07:42:03.368Z,55.98
2023-05-19T07:43:03.378Z,58.06
2023-05-19T07:44:03.380Z,60.06
2023-05-19T07:45:03.335Z,60.93
2023-05-19T07:46:03.355Z,58.59
2023-05-19T07:47:03.342Z,60.35
2023-05-19T07:48:03.391Z,57.98
2023-05-19T07:49:03.356Z,58.65
2023-05-19T07:50:03.351Z,62.48
2023-05-19T07:51:03.341Z,62.75
2023-05-19T07:52:03.285Z,61.13
2023-05-19T07:53:03.269Z,58.90
2023-05-19T07:54:03.294Z,56.26
2023-05-19T07:55:03.285Z,59.03
2023-05-19T07:56:03.251Z,57.43
2023-05-19T07:57:03.274Z,60.24
2023-05-19T07:58:03.269Z,57.50
2023-05-19T07:59:03.289Z,58.31
2023-05-19T08:00:03.234Z,59.43
2023-05-19T08:01:03.263Z,59.78
2023-05-19T08:02:03.243Z,58.74
2023-05-19T08:03:03.346Z,60.26
2023-05-19T08:04:03.302Z,60.31
2023-05-19T08:05:03.208Z,59.00
2023-05-19T08:06:03.202Z,60.77
2023-05-19T08:07:03.208Z,58.51
2023-05-19T08:08:03.250Z,59.05
2023-05-19T08:09:03.160Z,57.88
2023-05-19T08:10:03.165Z,61.18
2023-05-19T08:11:03.169Z,58.92
2023-05-19T08:12:03.204Z,61.13
2023-05-19T08:13:03.138Z,60.97
2023-05-19T08:14:03.126Z,58.00
2023-05-19T08:15:03.204Z,57.40
2023-05-19T08:16:03.197Z,58.61
2023-05-19T08:17:03.131Z,59.63
2023-05-19T08:18:03.142Z,60.20
2023-05-19T08:19:03.232Z,56.02
2023-05-19T08:20:03.102Z,56.81
2023-05-19T08:21:03.128Z,54.71
2023-05-19T08:22:03.091Z,55.85
2023-05-19T08:23:03.083Z,57.57
2023-05-19T08:24:03.129Z,57.34
2023-05-19T08:25:03.053Z,53.85
2023-05-19T08:26:03.069Z,53.93
2023-05-19T08:27:04.064Z,56.43
2023-05-19T08:28:03.068Z,56.40
2023-05-19T08:29:03.050Z,54.00
2023-05-19T08:30:03.040Z,53.32
2023-05-19T08:31:03.046Z,53.20
2023-05-19T08:32:03.010Z,54.83
2023-05-19T08:33:03.186Z,54.94
2023-05-19T08:34:02.969Z,54.51
2023-05-19T08:35:03.034Z,55.90
2023-05-19T08:36:02.974Z,53.12
2023-05-19T08:37:02.984Z,56.07
2023-05-19T08:38:03.048Z,53.09
2023-05-19T08:39:02.973Z,53.88
2023-05-19T08:40:02.958Z,57.08
2023-05-19T08:41:02.962Z,53.32
2023-05-19T08:42:02.968Z,55.06
2023-05-19T08:43:02.993Z,53.80
2023-05-19T08:44:02.983Z,59.25
2023-05-19T08:45:02.948Z,53.17
2023-05-19T08:46:02.929Z,54.16
2023-05-19T08:47:03.080Z,56.69
2023-05-19T08:48:02.951Z,57.95
2023-05-19T08:49:02.971Z,59.84
2023-05-19T08:50:02.901Z,58.30
2023-05-19T08:51:02.905Z,54.38
2023-05-19T08:52:02.894Z,57.91
2023-05-19T08:53:02.909Z,53.50
2023-05-19T08:54:02.885Z,52.89
2023-05-19T08:55:02.917Z,52.87
2023-05-19T08:56:02.974Z,53.63
2023-05-19T08:57:02.873Z,55.14
2023-05-19T08:58:02.830Z,54.53
2023-05-19T08:59:02.843Z,54.94
2023-05-19T09:00:02.870Z,53.63
2023-05-19T09:01:02.894Z,54.61
2023-05-19T09:02:02.812Z,55.62
2023-05-19T09:04:03.886Z,57.06
2023-05-19T09:05:02.951Z,54.79
2023-05-19T09:06:02.819Z,54.76
2023-05-19T09:07:02.786Z,55.14
2023-05-19T09:08:02.786Z,53.67
2023-05-19T09:09:02.763Z,53.40
2023-05-19T09:10:02.805Z,53.63
2023-05-19T09:11:02.774Z,52.42
2023-05-19T09:12:02.775Z,52.22
2023-05-19T09:13:02.745Z,56.27
2023-05-19T09:14:02.792Z,52.64
2023-05-19T09:15:02.759Z,56.37
2023-05-19T09:16:02.756Z,54.99
2023-05-19T09:17:02.909Z,51.43
2023-05-19T09:18:02.776Z,52.29
2023-05-19T09:19:02.725Z,54.46
2023-05-19T09:20:02.716Z,53.50
2023-05-19T09:21:03.050Z,52.03
2023-05-19T09:22:02.744Z,53.42
2023-05-19T09:23:02.752Z,56.56
2023-05-19T09:24:02.697Z,55.39
2023-05-19T09:25:02.689Z,50.95
2023-05-19T09:26:02.678Z,54.33
2023-05-19T09:27:02.726Z,53.34
2023-05-19T09:28:02.645Z,55.07
2023-05-19T09:29:02.720Z,53.96
2023-05-19T09:30:02.668Z,56.18
2023-05-19T09:31:02.648Z,52.51
2023-05-19T09:32:02.675Z,52.69
2023-05-19T09:33:02.704Z,52.14
2023-05-19T09:34:02.660Z,47.90
2023-05-19T09:35:02.614Z,49.31
2023-05-19T09:36:02.624Z,51.48
2023-05-19T09:37:02.627Z,49.41
2023-05-19T09:38:02.633Z,48.61
2023-05-19T09:39:02.641Z,49.99
2023-05-19T09:40:02.580Z,51.73
2023-05-19T09:41:02.568Z,48.79
2023-05-19T09:42:02.593Z,49.21
2023-05-19T09:43:02.544Z,49.64
2023-05-19T09:44:02.603Z,50.55
2023-05-19T09:45:02.557Z,52.69
2023-05-19T09:46:02.577Z,53.40
2023-05-19T09:47:02.523Z,51.20
2023-05-19T09:48:02.561Z,51.00
2023-05-19T09:49:02.502Z,53.60
2023-05-19T09:50:02.529Z,53.17
2023-05-19T09:51:03.495Z,52.16
2023-05-19T09:52:02.498Z,51.56
2023-05-19T09:53:02.513Z,50.73
2023-05-19T09:54:02.492Z,51.00
2023-05-19T09:55:02.524Z,49.90
2023-05-19T09:56:02.527Z,50.22
2023-05-19T09:57:02.554Z,51.91
2023-05-19T09:58:02.479Z,50.27
2023-05-19T09:59:02.543Z,51.07
2023-05-19T10:00:02.526Z,52.06
2023-05-19T10:01:02.498Z,51.56
2023-05-19T10:02:02.670Z,50.35
2023-05-19T10:03:02.477Z,52.59
2023-05-19T10:04:03.776Z,50.62
2023-05-19T10:05:02.443Z,51.20
2023-05-19T10:06:02.444Z,48.38
2023-05-19T10:07:02.437Z,51.10
2023-05-19T10:08:02.405Z,50.25
2023-05-19T10:09:02.410Z,48.54
2023-05-19T10:10:02.393Z,48.86
2023-05-19T10:11:02.425Z,51.03
2023-05-19T10:12:02.402Z,51.91
2023-05-19T10:13:02.474Z,51.51
2023-05-19T10:14:02.380Z,49.01
2023-05-19T10:15:02.407Z,50.32
2023-05-19T10:16:02.609Z,49.09
2023-05-19T10:17:02.546Z,49.72
2023-05-19T10:18:02.426Z,51.81
2023-05-19T10:19:02.439Z,48.81
2023-05-19T10:20:02.340Z,48.89
2023-05-19T10:21:02.330Z,49.09
2023-05-19T10:22:02.317Z,50.40
2023-05-19T10:23:02.387Z,52.24
2023-05-19T10:24:02.310Z,53.42
2023-05-19T10:25:02.312Z,50.23
2023-05-19T10:26:02.306Z,50.71
2023-05-19T10:27:02.339Z,48.77
2023-05-19T10:28:02.321Z,48.77
2023-05-19T10:29:04.154Z,47.16
2023-05-19T10:30:03.444Z,49.95
2023-05-19T10:31:02.252Z,47.64
2023-05-19T10:32:02.376Z,48.99
2023-05-19T10:33:02.386Z,48.84
2023-05-19T10:34:02.280Z,49.24
2023-05-19T10:35:02.232Z,51.64
2023-05-19T10:36:02.304Z,49.50
2023-05-19T10:37:02.207Z,47.96
2023-05-19T10:38:02.211Z,48.72
2023-05-19T10:39:02.426Z,48.06
2023-05-19T10:40:02.319Z,49.07
2023-05-19T10:41:02.248Z,49.49
2023-05-19T10:42:03.117Z,49.59
2023-05-19T10:43:02.183Z,49.57
2023-05-19T10:44:02.203Z,49.27
2023-05-19T10:45:02.238Z,49.37
2023-05-19T10:46:02.265Z,48.79
2023-05-19T10:47:02.365Z,47.96
2023-05-19T10:48:02.242Z,48.69
2023-05-19T10:49:02.166Z,49.59
2023-05-19T10:50:02.298Z,51.66
2023-05-19T10:51:02.201Z,49.52
2023-05-19T10:52:02.150Z,52.24
2023-05-19T10:53:02.141Z,48.36
2023-05-19T10:54:02.168Z,49.47
2023-05-19T10:55:02.214Z,48.76
2023-05-19T10:56:02.167Z,48.58
2023-05-19T10:57:02.130Z,50.60
2023-05-19T10:58:02.102Z,48.24
2023-05-19T10:59:02.082Z,47.20
2023-05-19T11:00:02.142Z,49.12
2023-05-19T11:01:02.074Z,48.17
2023-05-19T11:02:03.915Z,48.85
2023-05-19T11:03:02.107Z,47.64
2023-05-19T11:04:02.167Z,48.07
2023-05-19T11:05:02.126Z,52.89
2023-05-19T11:06:02.033Z,48.65
2023-05-19T11:07:02.046Z,46.28
2023-05-19T11:08:02.103Z,47.04
2023-05-19T11:09:02.034Z,48.47
2023-05-19T11:10:02.172Z,50.60
2023-05-19T11:11:02.020Z,48.79
2023-05-19T11:12:02.030Z,48.84
2023-05-19T11:13:02.068Z,49.12
2023-05-19T11:14:01.992Z,51.64
2023-05-19T11:15:01.982Z,48.37
2023-05-19T11:16:01.997Z,52.06
2023-05-19T11:17:02.059Z,49.77
2023-05-19T11:18:02.025Z,45.59
2023-05-19T11:19:02.021Z,48.46
2023-05-19T11:20:01.979Z,47.23
2023-05-19T11:21:01.996Z,51.01
2023-05-19T11:22:01.938Z,48.17
2023-05-19T11:23:02.003Z,44.55
2023-05-19T11:24:02.072Z,45.87
2023-05-19T11:25:01.906Z,47.69
2023-05-19T11:26:01.942Z,47.61
2023-05-19T11:27:01.966Z,49.73
2023-05-19T11:28:01.911Z,47.08
2023-05-19T11:29:01.943Z,47.66
2023-05-19T11:30:02.034Z,46.40
2023-05-19T11:31:01.889Z,46.58
2023-05-19T11:32:01.909Z,45.87
2023-05-19T11:33:01.952Z,46.93
2023-05-19T11:34:01.901Z,47.74
2023-05-19T11:35:02.149Z,47.13
2023-05-19T11:36:01.866Z,48.21
2023-05-19T11:37:01.851Z,46.12
2023-05-19T11:38:01.922Z,48.01
2023-05-19T11:39:01.832Z,47.79
2023-05-19T11:40:01.847Z,46.96
2023-05-19T11:41:01.856Z,48.57
2023-05-19T11:42:01.822Z,47.55
2023-05-19T11:43:01.816Z,49.19
2023-05-19T11:44:01.835Z,50.73
2023-05-19T11:45:01.893Z,48.66
2023-05-19T11:46:01.888Z,48.56
2023-05-19T11:47:02.846Z,50.73
2023-05-19T11:48:03.161Z,48.37
2023-05-19T11:49:02.850Z,46.84
2023-05-19T11:50:01.762Z,47.42
2023-05-19T11:51:01.843Z,45.89
2023-05-19T11:52:01.761Z,43.50
2023-05-19T11:53:02.003Z,46.00
2023-05-19T11:54:01.759Z,46.53
2023-05-19T11:55:01.735Z,47.66
2023-05-19T11:56:01.740Z,48.69
2023-05-19T11:57:01.720Z,49.29
2023-05-19T11:58:04.666Z,49.19
2023-05-19T11:59:02.725Z,49.55
2023-05-19T12:00:01.748Z,47.79
2023-05-19T12:01:01.726Z,48.59
2023-05-19T12:02:01.716Z,47.31
2023-05-19T12:03:01.782Z,46.73
2023-05-19T12:04:01.738Z,47.71
2023-05-19T12:05:01.738Z,46.50
2023-05-19T12:06:01.707Z,48.21
2023-05-19T12:07:01.673Z,48.82
2023-05-19T12:08:01.656Z,50.76
2023-05-19T12:09:01.690Z,49.40
2023-05-19T12:10:01.706Z,49.68
2023-05-19T12:11:01.654Z,50.20
2023-05-19T12:12:01.644Z,50.68
2023-05-19T12:13:01.616Z,48.11
2023-05-19T12:14:01.625Z,48.94
2023-05-19T12:15:01.650Z,49.77
2023-05-19T12:16:01.669Z,48.86
2023-05-19T12:17:01.611Z,49.77
2023-05-19T12:18:01.681Z,49.87
2023-05-19T12:19:01.707Z,50.57
2023-05-19T12:20:01.634Z,50.60
2023-05-19T12:21:01.622Z,48.94
2023-05-19T12:22:03.434Z,50.15
2023-05-19T12:23:01.578Z,50.05
2023-05-19T12:24:01.567Z,48.44
2023-05-19T12:25:01.570Z,50.83
2023-05-19T12:26:01.564Z,48.49
2023-05-19T12:27:01.551Z,46.76
2023-05-19T12:28:01.628Z,47.12
2023-05-19T12:29:01.595Z,47.50
2023-05-19T12:30:01.574Z,47.35
2023-05-19T12:31:01.582Z,47.58
2023-05-19T12:32:01.601Z,46.61
2023-05-19T12:33:01.556Z,47.64
2023-05-19T12:34:01.544Z,47.94
2023-05-19T12:35:01.482Z,48.95
2023-05-19T12:36:02.481Z,48.72
2023-05-19T12:37:01.510Z,47.22
2023-05-19T12:38:01.511Z,47.14
2023-05-19T12:39:01.461Z,48.22
2023-05-19T12:40:01.461Z,46.22
2023-05-19T12:41:01.455Z,45.21
2023-05-19T12:42:01.447Z,45.29
2023-05-19T12:43:01.498Z,44.83
2023-05-19T12:44:01.423Z,47.04
2023-05-19T12:45:03.115Z,46.22
2023-05-19T12:46:01.570Z,46.84
2023-05-19T12:47:01.429Z,45.03
2023-05-19T12:48:01.501Z,46.38
2023-05-19T12:49:01.426Z,44.57
2023-05-19T12:50:01.452Z,46.58
2023-05-19T12:51:01.381Z,46.48
2023-05-19T12:52:03.278Z,46.36
2023-05-19T12:53:01.390Z,46.84